Flight Number: EUR2034 Duration: 0:50
Departure: Vienna Schwechat (LOWW) at 07:00 Distance: 192 Nm
Arrival: Munich Int'l (EDDM) at 07:50 Equipment: B737

Weather Information
Wien / Schwechat-Flughafen, Austria (LOWW) 48-07N 016-34E 190M May 24, 2018 - 05:20 PM EDT / 2018.05.24 2120 UTC
Wind: from the E (100 degrees) at 3 MPH (3 KT):0
Visibility: greater than 7 mile(s):0
Sky conditions: mostly cloudy Weather: Towering cumulus clouds observed Temperature: 62 F (17 C) Dew Point: 60 F (16 C) Relative Humidity: 93% Pressure (altimeter): 30.06 in. Hg (1018 hPa)
ob: LOWW 242120Z 10003KT 9999 FEW050TCU SCT110 BKN300 17/16 Q1018 NOSIG cycle: 21
Sunrise: 03:07 Sunset: 18:33 (UTC)

Munchen, Germany (EDDM) 48-21N 011-47E May 24, 2018 - 05:20 PM EDT / 2018.05.24 2120 UTC
Wind: from the SSW (210 degrees) at 7 MPH (6 KT):0
Visibility: 5 mile(s):0
Sky conditions: mostly cloudy Weather: rain with thunder; Cumulonimbus clouds observed Temperature: 59 F (15 C) Dew Point: 55 F (13 C) Relative Humidity: 87% Pressure (altimeter): 30.09 in. Hg (1019 hPa)
ob: EDDM 242120Z 21006KT 9000 TSRA FEW010 SCT022CB BKN080 15/13 Q1019 RESHGR BECMG NSW cycle: 21
Sunrise: 03:26 Sunset: 18:53 (UTC)

TAF:2018/05/24 18:27 TAF EDDM 241700Z 2418/2524 VRB03KT 9999 SCT025 PROB40 TEMPO 2418/2422 30015G25KT 3000 TSRA SCT010 BKN020CB PROB40 TEMPO 2502/2506 0700 FG PROB30 TEMPO 2506/2508 3000 BR BKN005 BECMG 2508/2510 34005KT PROB30 TEMPO 2512/2517 TSRA SCT030CB BECMG 2513/2515 05007KT

Previous Pireps for this route
Date Aircraft Flight time Fuel used Landing rate On time
2013-04-01B737150000No
2013-07-06B73700.575700-422No
2013-07-06B73701.008599-817No
2013-07-21B7370.5000No
2013-08-15B73701.016744-288No
2013-10-20B7371.0092540No
2014-03-31B73701.199380-574No
2014-04-03B73700.588004-338Charter
2014-06-28B73700.52-12-337No
2014-06-28B7370.5913800No
2015-01-13B73701.075609-153Yes
2015-03-12B73700.494943-86Yes
2015-03-28B73700.494149-273Yes
2015-04-04B73700.484345-256Yes
2015-04-05B73701.088560-479Yes
2015-04-06B73700.503379-138Yes
2015-06-23B7370.4649900Yes
2015-07-12B7370.5557050Yes
(pireps marked green are flown by you)

Route map